createdAt,value
2023-04-19T00:02:02.662Z,10.90
2023-04-19T00:04:38.427Z,11.07
2023-04-19T00:07:11.142Z,9.35
2023-04-19T00:09:43.548Z,7.38
2023-04-19T00:12:15.699Z,9.95
2023-04-19T00:14:47.762Z,10.45
2023-04-19T00:17:21.313Z,12.45
2023-04-19T00:19:53.642Z,7.57
2023-04-19T00:22:26.448Z,9.40
2023-04-19T00:24:58.791Z,12.90
2023-04-19T00:27:31.041Z,18.85
2023-04-19T00:30:03.220Z,14.45
2023-04-19T00:32:35.442Z,10.48
2023-04-19T00:35:07.996Z,12.20
2023-04-19T00:37:40.101Z,13.50
2023-04-19T00:40:12.484Z,9.82
2023-04-19T00:42:44.569Z,20.63
2023-04-19T00:45:16.691Z,12.90
2023-04-19T00:47:48.878Z,8.82
2023-04-19T00:50:21.771Z,13.02
2023-04-19T00:52:55.915Z,10.13
2023-04-19T00:55:28.085Z,9.77
2023-04-19T00:58:00.507Z,10.02
2023-04-19T01:00:32.828Z,11.02
2023-04-19T01:03:05.406Z,9.60
2023-04-19T01:05:37.656Z,8.93
2023-04-19T01:08:09.768Z,8.20
2023-04-19T01:10:41.876Z,9.80
2023-04-19T01:13:14.067Z,11.75
2023-04-19T01:15:46.357Z,17.40
2023-04-19T01:18:19.626Z,12.27
2023-04-19T01:20:52.683Z,11.40
2023-04-19T01:27:26.540Z,25.25
2023-04-19T01:29:58.588Z,13.02
2023-04-19T01:32:30.770Z,13.57
2023-04-19T01:36:02.303Z,13.98
2023-04-19T01:38:35.508Z,15.10
2023-04-19T01:41:08.146Z,13.10
2023-04-19T01:43:40.373Z,13.90
2023-04-19T01:46:12.487Z,17.40
2023-04-19T01:48:44.644Z,12.70
2023-04-19T01:51:17.596Z,13.70
2023-04-19T01:53:54.064Z,14.82
2023-04-19T01:56:26.422Z,15.30
2023-04-19T01:58:58.578Z,17.45
2023-04-19T02:01:30.665Z,14.15
2023-04-19T02:04:05.761Z,12.52
2023-04-19T02:06:37.978Z,14.07
2023-04-19T02:09:10.061Z,16.40
2023-04-19T02:11:42.224Z,13.82
2023-04-19T02:14:14.514Z,13.55
2023-04-19T02:16:46.857Z,16.48
2023-04-19T02:19:19.005Z,12.93
2023-04-19T02:21:51.971Z,13.18
2023-04-19T02:24:25.162Z,15.02
2023-04-19T02:26:57.217Z,22.63
2023-04-19T02:29:29.292Z,12.00
2023-04-19T02:32:01.585Z,12.40
2023-04-19T02:34:34.760Z,10.65
2023-04-19T02:37:07.408Z,12.13
2023-04-19T02:39:39.736Z,15.48
2023-04-19T02:42:12.105Z,16.83
2023-04-19T02:44:44.249Z,21.42
2023-04-19T02:47:16.330Z,15.65
2023-04-19T02:49:48.396Z,20.15
2023-04-19T02:52:20.723Z,20.75
2023-04-19T02:54:52.867Z,19.38
2023-04-19T02:57:24.991Z,17.25
2023-04-19T02:59:57.070Z,18.25
2023-04-19T03:02:29.175Z,18.80
2023-04-19T03:05:01.484Z,26.75
2023-04-19T03:07:33.602Z,17.52
2023-04-19T03:13:58.716Z,20.83
2023-04-19T03:16:30.774Z,18.33
2023-04-19T03:19:02.886Z,17.48
2023-04-19T03:21:35.034Z,22.85
2023-04-19T03:24:07.405Z,20.30
2023-04-19T03:26:39.473Z,17.30
2023-04-19T03:29:11.662Z,13.65
2023-04-19T03:31:43.878Z,16.70
2023-04-19T03:34:16.264Z,21.88
2023-04-19T03:36:48.496Z,14.70
2023-04-19T03:39:20.612Z,18.85
2023-04-19T03:41:52.802Z,19.42
2023-04-19T03:44:24.838Z,14.18
2023-04-19T03:46:56.933Z,16.65
2023-04-19T03:49:29.028Z,21.80
2023-04-19T03:52:01.197Z,15.65
2023-04-19T03:54:33.201Z,15.25
2023-04-19T03:57:06.070Z,21.52
2023-04-19T03:59:38.159Z,18.27
2023-04-19T04:02:10.402Z,16.58
2023-04-19T04:04:42.727Z,15.98
2023-04-19T04:07:15.021Z,15.90
2023-04-19T04:09:48.548Z,15.15
2023-04-19T04:12:20.660Z,22.17
2023-04-19T04:14:52.807Z,15.25
2023-04-19T04:17:25.088Z,18.55
2023-04-19T04:19:57.196Z,13.68
2023-04-19T04:22:29.300Z,16.85
2023-04-19T04:25:02.448Z,17.98
2023-04-19T04:27:34.577Z,15.68
2023-04-19T04:30:42.052Z,17.17
2023-04-19T04:33:14.233Z,16.70
2023-04-19T04:35:46.562Z,15.18
2023-04-19T04:38:24.618Z,14.30
2023-04-19T04:40:57.705Z,18.67
2023-04-19T04:43:30.602Z,20.63
2023-04-19T04:46:02.706Z,16.48
2023-04-19T04:48:34.882Z,14.43
2023-04-19T04:51:07.033Z,13.25
2023-04-19T04:53:39.196Z,16.13
2023-04-19T04:56:11.285Z,13.23
2023-04-19T04:58:43.340Z,18.50
2023-04-19T05:01:17.551Z,14.90
2023-04-19T05:04:05.197Z,16.45
2023-04-19T05:06:37.271Z,15.30
2023-04-19T05:09:10.327Z,19.63
2023-04-19T05:11:42.537Z,20.15
2023-04-19T05:14:14.960Z,18.33
2023-04-19T05:16:47.438Z,16.02
2023-04-19T05:19:19.487Z,20.63
2023-04-19T05:21:51.578Z,16.98
2023-04-19T05:24:23.726Z,20.35
2023-04-19T05:26:56.522Z,14.38
2023-04-19T05:29:28.604Z,14.35
2023-04-19T05:32:00.780Z,14.68
2023-04-19T05:34:33.452Z,20.27
2023-04-19T05:37:05.941Z,17.27
2023-04-19T05:39:42.345Z,15.27
2023-04-19T05:42:16.435Z,14.00
2023-04-19T05:44:48.511Z,17.95
2023-04-19T05:47:21.565Z,20.50
2023-04-19T05:49:53.695Z,15.18
2023-04-19T05:52:25.845Z,17.67
2023-04-19T05:54:58.864Z,15.88
2023-04-19T05:57:31.054Z,12.25
2023-04-19T06:00:05.173Z,15.93
2023-04-19T06:02:37.616Z,15.15
2023-04-19T06:05:10.997Z,15.32
2023-04-19T06:07:50.637Z,14.57
2023-04-19T06:10:36.741Z,18.10
2023-04-19T06:13:19.492Z,15.43
2023-04-19T06:15:51.777Z,17.30
2023-04-19T06:18:23.839Z,19.50
2023-04-19T06:20:56.067Z,14.32
2023-04-19T06:23:28.143Z,11.90
2023-04-19T06:26:00.223Z,12.40
2023-04-19T06:28:44.343Z,14.85
2023-04-19T06:31:16.488Z,19.38
2023-04-19T06:33:48.606Z,13.65
2023-04-19T06:36:21.145Z,14.68
2023-04-19T06:39:14.122Z,15.88
2023-04-19T06:41:47.063Z,10.15
2023-04-19T06:44:19.533Z,8.98
2023-04-19T06:47:06.373Z,8.63
2023-04-19T06:49:55.539Z,9.23
2023-04-19T06:52:32.502Z,9.77
2023-04-19T06:55:09.143Z,12.10
2023-04-19T06:57:48.105Z,7.80
2023-04-19T07:00:29.408Z,9.18
2023-04-19T07:06:16.976Z,9.50
2023-04-19T07:09:45.088Z,15.18
2023-04-19T07:12:17.292Z,6.78
2023-04-19T07:14:49.765Z,10.95
2023-04-19T07:17:22.990Z,7.93
2023-04-19T07:19:55.359Z,9.77
2023-04-19T07:22:27.722Z,12.43
2023-04-19T07:25:01.400Z,9.20
2023-04-19T07:27:39.970Z,8.20
2023-04-19T07:30:12.540Z,10.13
2023-04-19T07:32:45.170Z,5.68
2023-04-19T07:35:18.332Z,9.15
2023-04-19T07:37:50.963Z,8.15
2023-04-19T07:40:23.312Z,9.70
2023-04-19T07:43:05.752Z,6.70
2023-04-19T07:45:38.059Z,5.40
2023-04-19T07:48:16.266Z,4.90
2023-04-19T07:50:49.461Z,5.22
2023-04-19T07:53:21.793Z,8.38
2023-04-19T07:55:54.143Z,5.60
2023-04-19T07:58:30.249Z,5.50
2023-04-19T08:01:02.664Z,4.72
2023-04-19T08:03:38.278Z,4.03
2023-04-19T08:06:10.622Z,6.05
2023-04-19T08:08:42.830Z,4.05
2023-04-19T08:11:15.355Z,5.57
2023-04-19T08:14:02.636Z,4.43
2023-04-19T08:17:08.988Z,4.38
2023-04-19T08:19:31.272Z,6.47
2023-04-19T08:22:09.098Z,2.58
2023-04-19T08:24:44.204Z,2.22
2023-04-19T08:27:16.853Z,3.08
2023-04-19T08:29:49.365Z,5.75
2023-04-19T08:32:24.702Z,2.67
2023-04-19T08:34:57.742Z,3.30
2023-04-19T08:37:30.010Z,2.78
2023-04-19T08:40:02.707Z,7.13
2023-04-19T08:42:36.729Z,3.20
2023-04-19T08:45:26.793Z,4.50
2023-04-19T08:48:02.671Z,2.03
2023-04-19T08:50:48.419Z,2.65
2023-04-19T08:53:37.255Z,1.95
2023-04-19T08:56:21.032Z,3.20
2023-04-19T08:59:11.477Z,2.78
2023-04-19T09:01:51.665Z,2.03
2023-04-19T09:05:06.377Z,4.07
2023-04-19T09:13:03.756Z,2.70
2023-04-19T09:16:00.177Z,5.22
2023-04-19T09:19:15.337Z,2.45
2023-04-19T09:22:15.699Z,4.88
2023-04-19T09:30:37.920Z,4.07
2023-04-19T09:33:42.088Z,1.83
2023-04-19T09:39:48.232Z,3.15
2023-04-19T09:42:42.364Z,2.50
2023-04-19T09:45:58.181Z,3.15
2023-04-19T09:48:38.507Z,5.32
2023-04-19T09:59:44.745Z,11.00
2023-04-19T10:02:48.701Z,7.43
2023-04-19T10:05:53.508Z,2.58
2023-04-19T10:08:30.127Z,2.70
2023-04-19T10:11:07.699Z,2.47
2023-04-19T10:13:44.404Z,3.55
2023-04-19T10:19:29.635Z,1.23
2023-04-19T10:22:17.630Z,6.00
2023-04-19T10:25:19.789Z,10.98
2023-04-19T10:27:52.087Z,2.05
2023-04-19T10:30:27.532Z,2.65
2023-04-19T10:33:03.142Z,7.80
2023-04-19T10:36:21.051Z,2.58
2023-04-19T10:38:56.534Z,2.65
2023-04-19T10:41:59.937Z,5.55
2023-04-19T10:44:42.477Z,3.40
2023-04-19T10:47:47.816Z,2.42
2023-04-19T10:50:46.509Z,5.20
2023-04-19T10:54:03.450Z,1.35
2023-04-19T10:56:35.863Z,1.73
2023-04-19T10:59:08.605Z,7.15
2023-04-19T11:05:36.515Z,3.33
2023-04-19T11:08:24.920Z,5.20
2023-04-19T11:11:11.156Z,1.50
2023-04-19T11:15:05.275Z,4.53
2023-04-19T11:18:11.938Z,9.23
2023-04-19T11:20:57.369Z,2.35
2023-04-19T11:24:24.477Z,2.45
2023-04-19T11:27:05.436Z,3.35
2023-04-19T11:30:14.907Z,1.88
2023-04-19T11:35:28.221Z,1.67
2023-04-19T11:38:01.898Z,2.70
2023-04-19T11:40:37.784Z,1.38
2023-04-19T11:43:10.005Z,6.28
2023-04-19T11:45:42.593Z,4.03
2023-04-19T11:48:30.004Z,2.65
2023-04-19T11:51:03.067Z,4.78
2023-04-19T11:53:35.121Z,2.17
2023-04-19T11:56:10.113Z,3.53
2023-04-19T11:58:46.128Z,2.13
2023-04-19T12:01:22.707Z,6.18
2023-04-19T12:03:57.800Z,6.32
2023-04-19T12:06:32.224Z,3.75
2023-04-19T12:09:11.658Z,2.22
2023-04-19T12:14:23.553Z,4.00
2023-04-19T12:17:20.098Z,3.58
2023-04-19T12:19:52.656Z,1.67
2023-04-19T12:22:28.251Z,4.40
2023-04-19T12:25:00.498Z,3.90
2023-04-19T12:27:41.352Z,3.00
2023-04-19T12:30:21.186Z,5.40
2023-04-19T12:32:56.342Z,2.30
2023-04-19T12:35:33.752Z,4.47
2023-04-19T12:38:06.362Z,6.90
2023-04-19T12:40:38.559Z,9.52
2023-04-19T12:43:10.826Z,3.50
2023-04-19T12:46:35.988Z,4.35
2023-04-19T12:49:08.479Z,3.00
2023-04-19T12:51:45.621Z,2.35
2023-04-19T12:55:09.815Z,3.05
2023-04-19T12:57:51.368Z,4.22
2023-04-19T13:00:25.527Z,5.13
2023-04-19T13:03:04.177Z,4.70
2023-04-19T13:05:36.550Z,6.15
2023-04-19T13:08:11.417Z,9.43
2023-04-19T13:10:45.660Z,4.47
2023-04-19T13:13:22.468Z,5.43
2023-04-19T13:15:54.673Z,5.05
2023-04-19T13:18:27.272Z,8.50
2023-04-19T13:20:59.630Z,11.05
2023-04-19T13:23:39.071Z,2.80
2023-04-19T13:26:19.429Z,9.00
2023-04-19T13:28:54.924Z,5.25
2023-04-19T13:31:27.928Z,4.57
2023-04-19T13:34:00.767Z,3.17
2023-04-19T13:36:32.984Z,5.65
2023-04-19T13:39:07.623Z,12.52
2023-04-19T13:41:40.767Z,7.40
2023-04-19T13:44:12.933Z,4.35
2023-04-19T13:47:05.042Z,3.38
2023-04-19T13:49:37.298Z,5.55
2023-04-19T13:52:11.230Z,8.93
2023-04-19T13:54:48.545Z,4.63
2023-04-19T13:57:21.196Z,5.22
2023-04-19T14:00:08.937Z,5.78
2023-04-19T14:02:42.171Z,11.18
2023-04-19T14:05:14.320Z,7.65
2023-04-19T14:07:46.869Z,7.10
2023-04-19T14:10:19.666Z,5.07
2023-04-19T14:12:58.065Z,4.07
2023-04-19T14:15:30.244Z,3.58
2023-04-19T14:18:03.457Z,10.50
2023-04-19T14:20:35.631Z,4.47
2023-04-19T14:23:10.153Z,6.22
2023-04-19T14:25:42.434Z,4.50
2023-04-19T14:28:19.996Z,4.10
2023-04-19T14:30:52.540Z,5.60
2023-04-19T14:33:24.796Z,2.35
2023-04-19T14:36:00.266Z,4.57
2023-04-19T14:38:35.588Z,4.93
2023-04-19T14:41:08.051Z,4.55
2023-04-19T14:43:40.150Z,4.30
2023-04-19T14:46:12.289Z,10.60
2023-04-19T14:49:20.607Z,5.32
2023-04-19T14:51:57.616Z,3.58
2023-04-19T14:54:35.716Z,7.90
2023-04-19T14:57:13.980Z,6.85
2023-04-19T14:59:49.371Z,5.40
2023-04-19T15:02:21.682Z,5.68
2023-04-19T15:04:54.761Z,4.55
2023-04-19T15:07:32.492Z,6.80
2023-04-19T15:10:10.089Z,6.85
2023-04-19T15:12:42.302Z,13.85
2023-04-19T15:15:21.046Z,23.60
2023-04-19T15:17:59.938Z,4.00
2023-04-19T15:20:39.658Z,6.00
2023-04-19T15:23:11.963Z,9.25
2023-04-19T15:25:52.648Z,19.08
2023-04-19T15:28:25.972Z,5.20
2023-04-19T15:31:11.251Z,8.65
2023-04-19T15:33:50.622Z,11.75
2023-04-19T15:36:22.918Z,5.73
2023-04-19T15:39:35.850Z,6.93
2023-04-19T15:42:08.028Z,6.05
2023-04-19T15:44:42.808Z,6.57
2023-04-19T15:47:16.456Z,7.05
2023-04-19T15:49:48.740Z,5.32
2023-04-19T15:52:37.005Z,7.63
2023-04-19T15:55:12.148Z,5.53
2023-04-19T15:57:44.300Z,10.32
2023-04-19T16:00:17.823Z,4.32
2023-04-19T16:02:50.283Z,4.88
2023-04-19T16:05:23.256Z,7.95
2023-04-19T16:08:08.106Z,4.95
2023-04-19T16:10:40.998Z,4.93
2023-04-19T16:14:07.846Z,3.90
2023-04-19T16:16:40.675Z,4.13
2023-04-19T16:19:12.852Z,5.22
2023-04-19T16:21:44.961Z,11.23
2023-04-19T16:24:17.138Z,6.13
2023-04-19T16:26:49.175Z,7.25
2023-04-19T16:29:21.327Z,7.10
2023-04-19T16:31:59.207Z,10.05
2023-04-19T16:34:31.524Z,11.70
2023-04-19T16:37:06.647Z,5.80
2023-04-19T16:39:38.803Z,11.07
2023-04-19T16:42:11.028Z,9.57
2023-04-19T16:44:43.588Z,11.07
2023-04-19T16:47:15.983Z,3.97
2023-04-19T16:49:49.579Z,7.80
2023-04-19T16:52:21.746Z,5.60
2023-04-19T16:54:54.414Z,5.68
2023-04-19T16:57:26.760Z,10.20
2023-04-19T17:00:13.622Z,9.23
2023-04-19T17:02:46.024Z,3.80
2023-04-19T17:05:18.379Z,20.67
2023-04-19T17:07:52.360Z,7.68
2023-04-19T17:10:26.970Z,3.65
2023-04-19T17:12:59.344Z,15.70
2023-04-19T17:15:31.813Z,5.50
2023-04-19T17:18:04.267Z,4.97
2023-04-19T17:20:38.852Z,13.48
2023-04-19T17:23:10.939Z,8.35
2023-04-19T17:25:43.237Z,9.55
2023-04-19T17:28:15.531Z,6.85
2023-04-19T17:30:47.687Z,5.63
2023-04-19T17:33:19.839Z,7.45
2023-04-19T17:35:52.088Z,7.78
2023-04-19T17:38:24.235Z,6.35
2023-04-19T17:40:57.376Z,5.82
2023-04-19T17:43:29.535Z,7.15
2023-04-19T17:46:01.748Z,13.07
2023-04-19T17:48:34.384Z,9.13
2023-04-19T17:51:07.448Z,6.45
2023-04-19T17:53:39.633Z,8.38
2023-04-19T17:56:11.812Z,10.05
2023-04-19T17:58:43.947Z,14.38
2023-04-19T18:01:16.464Z,9.70
2023-04-19T18:03:48.910Z,4.43
2023-04-19T18:06:21.423Z,4.00
2023-04-19T18:08:53.518Z,5.63
2023-04-19T18:11:28.181Z,6.95
2023-04-19T18:14:00.783Z,6.60
2023-04-19T18:16:33.502Z,4.93
2023-04-19T18:19:05.786Z,6.50
2023-04-19T18:21:37.905Z,6.15
2023-04-19T18:24:10.383Z,5.32
2023-04-19T18:26:44.067Z,5.93
2023-04-19T18:29:16.372Z,4.88
2023-04-19T18:31:48.954Z,5.95
2023-04-19T18:34:21.331Z,10.65
2023-04-19T18:37:00.326Z,12.15
2023-04-19T18:39:38.549Z,8.30
2023-04-19T18:42:11.834Z,10.45
2023-04-19T18:44:53.799Z,11.10
2023-04-19T18:47:27.658Z,10.75
2023-04-19T18:50:05.006Z,7.22
2023-04-19T18:52:39.704Z,9.27
2023-04-19T18:55:21.092Z,5.82
2023-04-19T18:57:53.359Z,4.00
2023-04-19T19:00:26.747Z,12.65
2023-04-19T19:03:00.570Z,7.65
2023-04-19T19:06:04.362Z,15.43
2023-04-19T19:08:36.833Z,3.85
2023-04-19T19:11:33.078Z,4.82
2023-04-19T19:14:02.894Z,5.05
2023-04-19T19:19:10.292Z,8.82
2023-04-19T19:21:42.496Z,7.22
2023-04-19T19:24:15.163Z,5.60
2023-04-19T19:26:48.222Z,9.73
2023-04-19T19:29:22.672Z,11.30
2023-04-19T19:31:55.313Z,5.90
2023-04-19T19:34:30.340Z,6.45
2023-04-19T19:37:06.548Z,9.15
2023-04-19T19:39:38.872Z,14.00
2023-04-19T19:42:15.178Z,8.60
2023-04-19T19:44:49.681Z,13.25
2023-04-19T19:47:27.853Z,10.52
2023-04-19T19:52:38.676Z,6.40
2023-04-19T19:55:14.252Z,10.23
2023-04-19T19:58:21.035Z,9.00
2023-04-19T20:00:46.952Z,7.90
2023-04-19T20:03:36.089Z,6.93
2023-04-19T20:07:02.931Z,7.90
2023-04-19T20:10:00.550Z,4.13
2023-04-19T20:12:34.404Z,4.97
2023-04-19T20:19:59.423Z,8.32
2023-04-19T20:23:07.218Z,4.07
2023-04-19T20:26:22.204Z,4.93
2023-04-19T20:28:54.505Z,7.57
2023-04-19T20:31:29.286Z,7.68
2023-04-19T20:34:01.857Z,6.65
2023-04-19T20:36:35.291Z,7.90
2023-04-19T20:39:13.477Z,12.23
2023-04-19T20:41:49.194Z,5.85
2023-04-19T20:44:23.061Z,5.30
2023-04-19T20:46:56.338Z,6.20
2023-04-19T20:49:28.517Z,6.93
2023-04-19T20:52:00.752Z,6.00
2023-04-19T20:54:40.787Z,8.45
2023-04-19T20:57:16.683Z,6.25
2023-04-19T20:59:49.708Z,7.53
2023-04-19T21:02:22.049Z,4.22
2023-04-19T21:04:54.248Z,6.97
2023-04-19T21:07:26.863Z,7.82
2023-04-19T21:09:59.029Z,13.52
2023-04-19T21:12:31.264Z,6.72
2023-04-19T21:15:05.208Z,6.18
2023-04-19T21:17:37.936Z,11.50
2023-04-19T21:20:14.930Z,7.68
2023-04-19T21:22:47.660Z,10.02
2023-04-19T21:25:20.083Z,5.95
2023-04-19T21:27:52.350Z,9.65
2023-04-19T21:30:25.950Z,6.80
2023-04-19T21:32:58.175Z,10.68
2023-04-19T21:35:30.557Z,9.98
2023-04-19T21:38:02.939Z,7.43
2023-04-19T21:40:35.350Z,9.88
2023-04-19T21:43:10.275Z,9.07
2023-04-19T21:45:42.466Z,5.60
2023-04-19T21:48:15.241Z,11.50
2023-04-19T21:50:47.516Z,7.28
2023-04-19T21:53:19.684Z,6.85
2023-04-19T21:55:52.075Z,7.30
2023-04-19T21:58:24.225Z,5.80
2023-04-19T22:00:56.572Z,7.88
2023-04-19T22:03:29.070Z,8.80
2023-04-19T22:06:02.240Z,2.95
2023-04-19T22:08:34.988Z,6.07
2023-04-19T22:11:07.459Z,6.93
2023-04-19T22:13:42.298Z,5.45
2023-04-19T22:17:07.641Z,5.38
2023-04-19T22:19:40.126Z,5.40
2023-04-19T22:22:26.842Z,6.13
2023-04-19T22:24:59.710Z,7.43
2023-04-19T22:27:33.696Z,6.35
2023-04-19T22:30:07.697Z,4.50
2023-04-19T22:32:41.206Z,5.13
2023-04-19T22:35:13.545Z,5.97
2023-04-19T22:37:45.882Z,6.35
2023-04-19T22:40:18.017Z,15.13
2023-04-19T22:42:50.141Z,8.55
2023-04-19T22:45:22.243Z,10.32
2023-04-19T22:47:54.524Z,7.95
2023-04-19T22:50:26.713Z,5.65
2023-04-19T22:52:58.955Z,8.82
2023-04-19T22:55:31.225Z,4.07
2023-04-19T22:58:05.028Z,5.95
2023-04-19T23:00:37.976Z,7.25
2023-04-19T23:03:11.806Z,4.75
2023-04-19T23:05:44.716Z,7.32
2023-04-19T23:08:17.087Z,8.07
2023-04-19T23:10:51.018Z,4.50
2023-04-19T23:13:23.382Z,6.50
2023-04-19T23:15:55.532Z,7.25
2023-04-19T23:18:28.169Z,4.25
2023-04-19T23:21:00.331Z,6.97
2023-04-19T23:23:33.891Z,8.48
2023-04-19T23:26:06.348Z,6.32
2023-04-19T23:28:38.678Z,5.93
2023-04-19T23:31:13.976Z,8.43
2023-04-19T23:33:46.203Z,9.10
2023-04-19T23:36:18.402Z,12.27
2023-04-19T23:39:38.388Z,10.57
2023-04-19T23:42:10.596Z,6.65
2023-04-19T23:45:06.751Z,7.90
2023-04-19T23:47:39.232Z,10.45
2023-04-19T23:50:11.804Z,6.53
2023-04-19T23:52:44.104Z,5.32
2023-04-19T23:55:19.546Z,4.13
2023-04-19T23:57:51.716Z,5.13
